createdAt,value
2022-07-29T00:01:44.819Z,64.72
2022-07-29T00:04:13.619Z,65.95
2022-07-29T00:06:42.163Z,68.28
2022-07-29T00:09:10.203Z,69.94
2022-07-29T00:11:38.293Z,70.84
2022-07-29T00:14:06.443Z,72.33
2022-07-29T00:16:34.474Z,73.13
2022-07-29T00:19:04.162Z,73.86
2022-07-29T00:21:32.056Z,74.30
2022-07-29T00:24:00.086Z,74.79
2022-07-29T00:26:32.491Z,75.31
2022-07-29T00:29:31.865Z,75.96
2022-07-29T00:31:49.028Z,76.52
2022-07-29T00:34:35.596Z,76.58
2022-07-29T00:37:03.761Z,76.74
2022-07-29T00:39:31.725Z,76.97
2022-07-29T00:41:59.591Z,77.25
2022-07-29T00:44:27.434Z,78.17
2022-07-29T00:46:55.449Z,79.27
2022-07-29T00:49:24.959Z,80.03
2022-07-29T00:51:53.265Z,80.75
2022-07-29T00:54:21.446Z,81.29
2022-07-29T00:56:49.419Z,81.62
2022-07-29T00:59:17.893Z,81.83
2022-07-29T01:01:45.859Z,81.56
2022-07-29T01:04:14.014Z,81.03
2022-07-29T01:06:45.140Z,81.27
2022-07-29T01:09:14.313Z,81.69
2022-07-29T01:11:42.621Z,82.17
2022-07-29T01:14:11.820Z,83.81
2022-07-29T01:16:47.161Z,82.79
2022-07-29T01:19:35.583Z,82.03
2022-07-29T01:22:21.261Z,81.78
2022-07-29T01:25:05.162Z,82.13
2022-07-29T01:27:43.423Z,82.11
2022-07-29T01:30:14.743Z,82.03
2022-07-29T01:32:49.620Z,82.87
2022-07-29T01:35:21.093Z,83.63
2022-07-29T01:37:54.074Z,83.63
2022-07-29T01:40:24.214Z,84.31
2022-07-29T01:42:56.236Z,85.17
2022-07-29T01:45:31.662Z,85.16
2022-07-29T01:48:04.501Z,84.66
2022-07-29T01:50:37.801Z,84.99
2022-07-29T01:53:09.970Z,85.14
2022-07-29T01:55:41.968Z,86.68
2022-07-29T01:58:11.557Z,86.46
2022-07-29T02:00:43.812Z,86.32
2022-07-29T02:03:13.780Z,87.31
2022-07-29T02:05:44.545Z,88.20
2022-07-29T02:08:14.004Z,89.07
2022-07-29T02:10:44.281Z,90.48
2022-07-29T02:13:13.643Z,91.46
2022-07-29T02:15:44.631Z,91.99
2022-07-29T02:18:17.506Z,92.18
2022-07-29T02:20:47.583Z,92.81
2022-07-29T02:23:18.372Z,93.48
2022-07-29T02:25:48.430Z,93.76
2022-07-29T02:28:18.245Z,93.74
2022-07-29T02:30:49.036Z,93.83
2022-07-29T02:33:20.509Z,93.90
2022-07-29T02:35:50.032Z,95.19
2022-07-29T02:38:36.434Z,96.06
2022-07-29T02:41:07.802Z,95.90
2022-07-29T02:43:37.369Z,95.89
2022-07-29T02:46:12.794Z,96.12
2022-07-29T02:49:03.966Z,96.29
2022-07-29T02:51:44.102Z,94.95
2022-07-29T02:54:20.662Z,95.34
2022-07-29T02:56:50.030Z,95.63
2022-07-29T02:59:24.130Z,96.09
2022-07-29T03:01:55.596Z,95.69
2022-07-29T03:04:27.136Z,95.40
2022-07-29T03:06:55.485Z,94.62
2022-07-29T03:09:25.190Z,94.95
2022-07-29T03:11:55.417Z,94.57
2022-07-29T03:14:24.968Z,95.55
2022-07-29T03:16:55.075Z,95.83
2022-07-29T03:19:23.411Z,96.54
2022-07-29T03:21:51.640Z,96.49
2022-07-29T03:24:33.499Z,97.36
2022-07-29T03:27:02.147Z,98.08
2022-07-29T03:29:33.926Z,98.26
2022-07-29T03:32:08.205Z,99.08
2022-07-29T03:34:38.427Z,98.74
2022-07-29T03:37:07.198Z,98.75
2022-07-29T03:39:41.105Z,99.97
2022-07-29T03:42:12.357Z,100.00
2022-07-29T03:44:42.877Z,100.00
2022-07-29T03:47:15.441Z,100.00
2022-07-29T03:49:44.446Z,100.00
2022-07-29T03:52:12.958Z,100.00
2022-07-29T03:54:41.114Z,100.00
2022-07-29T03:57:10.523Z,100.00
2022-07-29T03:59:39.756Z,100.00
2022-07-29T04:02:14.881Z,100.00
2022-07-29T04:04:44.606Z,100.00
2022-07-29T04:07:14.623Z,100.00
2022-07-29T04:09:43.216Z,100.00
2022-07-29T04:12:11.854Z,100.00
2022-07-29T04:14:39.940Z,100.00
2022-07-29T04:17:07.809Z,100.00
2022-07-29T04:19:37.087Z,100.00
2022-07-29T04:22:05.159Z,100.00
2022-07-29T04:24:33.023Z,100.00
2022-07-29T04:27:00.942Z,100.00
2022-07-29T04:29:28.815Z,100.00
2022-07-29T04:31:56.646Z,100.00
2022-07-29T04:34:28.112Z,100.00
2022-07-29T04:36:57.819Z,100.00
2022-07-29T04:39:25.834Z,100.00
2022-07-29T04:41:57.605Z,100.00
2022-07-29T04:44:28.932Z,100.00
2022-07-29T04:46:58.777Z,100.00
2022-07-29T04:49:27.041Z,100.00
2022-07-29T04:51:55.350Z,100.00
2022-07-29T04:54:24.799Z,100.00
2022-07-29T04:56:53.554Z,100.00
2022-07-29T04:59:21.487Z,100.00
2022-07-29T05:01:49.400Z,100.00
2022-07-29T05:04:17.614Z,100.00
2022-07-29T05:06:45.819Z,100.00
2022-07-29T05:09:13.723Z,100.00
2022-07-29T05:11:42.940Z,100.00
2022-07-29T05:14:10.883Z,100.00
2022-07-29T05:16:40.154Z,100.00
2022-07-29T05:19:12.262Z,100.00
2022-07-29T05:21:42.211Z,100.00
2022-07-29T05:24:10.166Z,100.00
2022-07-29T05:26:38.235Z,100.00
2022-07-29T05:29:07.682Z,100.00
2022-07-29T05:31:55.516Z,100.00
2022-07-29T05:34:23.516Z,100.00
2022-07-29T05:36:51.919Z,99.25
2022-07-29T05:39:19.818Z,99.83
2022-07-29T05:41:51.842Z,100.00
2022-07-29T05:44:21.429Z,100.00
2022-07-29T05:46:53.461Z,99.68
2022-07-29T05:49:27.151Z,99.92
2022-07-29T05:51:55.741Z,100.00
2022-07-29T05:54:23.753Z,100.00
2022-07-29T05:56:51.904Z,100.00
2022-07-29T05:59:21.232Z,100.00
2022-07-29T06:01:49.229Z,100.00
2022-07-29T06:04:17.524Z,100.00
2022-07-29T06:06:45.956Z,100.00
2022-07-29T06:09:14.409Z,100.00
2022-07-29T06:11:42.559Z,100.00
2022-07-29T06:14:10.541Z,100.00
2022-07-29T06:16:39.897Z,100.00
2022-07-29T06:19:07.917Z,100.00
2022-07-29T06:21:38.715Z,100.00
2022-07-29T06:24:10.197Z,100.00
2022-07-29T06:26:39.995Z,100.00
2022-07-29T06:29:08.163Z,100.00
2022-07-29T06:31:36.572Z,100.00
2022-07-29T06:34:06.014Z,100.00
2022-07-29T06:36:36.820Z,100.00
2022-07-29T06:39:07.538Z,100.00
2022-07-29T06:41:36.637Z,100.00
2022-07-29T06:44:05.605Z,100.00
2022-07-29T06:46:33.842Z,100.00
2022-07-29T06:49:03.418Z,100.00
2022-07-29T06:51:32.782Z,100.00
2022-07-29T06:54:03.430Z,100.00
2022-07-29T06:56:39.016Z,100.00
2022-07-29T06:59:08.730Z,100.00
2022-07-29T07:01:37.784Z,100.00
2022-07-29T07:04:06.131Z,100.00
2022-07-29T07:06:35.636Z,100.00
2022-07-29T07:09:03.787Z,100.00
2022-07-29T07:11:31.727Z,100.00
2022-07-29T07:14:03.478Z,100.00
2022-07-29T07:16:32.561Z,100.00
2022-07-29T07:19:00.712Z,100.00
2022-07-29T07:21:30.488Z,100.00
2022-07-29T07:24:00.889Z,100.00
2022-07-29T07:26:29.309Z,100.00
2022-07-29T07:28:57.255Z,100.00
2022-07-29T07:31:25.258Z,100.00
2022-07-29T07:33:54.328Z,100.00
2022-07-29T07:36:22.469Z,100.00
2022-07-29T07:38:50.614Z,100.00
2022-07-29T07:41:20.012Z,100.00
2022-07-29T07:43:47.989Z,100.00
2022-07-29T07:46:16.154Z,100.00
2022-07-29T07:48:44.299Z,100.00
2022-07-29T07:51:12.631Z,100.00
2022-07-29T07:53:40.667Z,98.57
2022-07-29T07:56:11.522Z,98.12
2022-07-29T07:58:41.681Z,98.90
2022-07-29T08:01:09.937Z,96.16
2022-07-29T08:03:38.670Z,95.15
2022-07-29T08:06:07.229Z,94.87
2022-07-29T08:08:35.179Z,96.69
2022-07-29T08:11:08.967Z,95.68
2022-07-29T08:13:39.074Z,94.65
2022-07-29T08:16:16.035Z,95.13
2022-07-29T08:18:45.909Z,95.12
2022-07-29T08:21:16.141Z,93.50
2022-07-29T08:23:58.649Z,94.42
2022-07-29T08:26:28.796Z,95.57
2022-07-29T08:28:56.794Z,95.90
2022-07-29T08:31:26.130Z,94.51
2022-07-29T08:33:54.126Z,95.15
2022-07-29T08:36:22.953Z,93.39
2022-07-29T08:38:51.896Z,92.70
2022-07-29T08:41:20.446Z,91.07
2022-07-29T08:43:48.799Z,90.29
2022-07-29T08:46:18.119Z,90.13
2022-07-29T08:48:49.953Z,90.25
2022-07-29T08:51:19.466Z,89.32
2022-07-29T08:53:49.448Z,89.14
2022-07-29T08:56:19.096Z,89.63
2022-07-29T08:58:51.921Z,86.62
2022-07-29T09:01:36.321Z,85.93
2022-07-29T09:04:14.352Z,87.24
2022-07-29T09:06:46.390Z,86.59
2022-07-29T09:09:15.620Z,85.60
2022-07-29T09:11:44.450Z,86.17
2022-07-29T09:14:14.127Z,83.86
2022-07-29T09:16:55.341Z,84.88
2022-07-29T09:19:30.073Z,83.32
2022-07-29T09:22:03.363Z,82.19
2022-07-29T09:24:46.099Z,81.82
2022-07-29T09:27:22.807Z,81.18
2022-07-29T09:29:59.235Z,80.92
2022-07-29T09:32:27.535Z,77.33
2022-07-29T09:35:17.730Z,76.58
2022-07-29T09:37:46.289Z,77.84
2022-07-29T09:40:16.885Z,77.74
2022-07-29T09:42:45.445Z,77.68
2022-07-29T09:45:13.437Z,77.54
2022-07-29T09:47:47.944Z,76.41
2022-07-29T09:50:20.639Z,74.60
2022-07-29T09:52:51.147Z,72.90
2022-07-29T09:55:20.748Z,73.19
2022-07-29T09:57:49.043Z,72.77
2022-07-29T10:00:19.802Z,71.48
2022-07-29T10:02:49.674Z,71.22
2022-07-29T10:05:24.278Z,69.11
2022-07-29T10:07:55.246Z,69.68
2022-07-29T10:10:27.516Z,66.93
2022-07-29T10:12:59.733Z,67.63
2022-07-29T10:15:32.943Z,68.09
2022-07-29T10:18:01.758Z,69.17
2022-07-29T10:20:31.046Z,66.49
2022-07-29T10:22:59.033Z,68.14
2022-07-29T10:25:28.116Z,69.80
2022-07-29T10:27:56.474Z,68.51
2022-07-29T10:30:26.560Z,68.81
2022-07-29T10:33:12.881Z,68.91
2022-07-29T10:36:02.015Z,68.05
2022-07-29T10:38:45.726Z,66.90
2022-07-29T10:41:43.912Z,64.86
2022-07-29T10:44:19.412Z,64.93
2022-07-29T10:46:51.575Z,64.96
2022-07-29T10:49:24.866Z,64.65
2022-07-29T10:51:57.450Z,64.55
2022-07-29T10:54:48.597Z,64.21
2022-07-29T10:57:20.730Z,64.18
2022-07-29T10:59:50.391Z,63.03
2022-07-29T11:02:44.702Z,63.31
2022-07-29T11:05:14.259Z,65.54
2022-07-29T11:08:26.325Z,64.34
2022-07-29T11:11:43.738Z,63.78
2022-07-29T11:14:12.350Z,61.48
2022-07-29T11:20:38.629Z,59.42
2022-07-29T11:23:33.371Z,61.08
2022-07-29T11:26:25.551Z,61.86
2022-07-29T11:28:56.755Z,59.34
2022-07-29T11:31:39.303Z,61.33
2022-07-29T11:34:21.599Z,58.79
2022-07-29T11:37:20.064Z,58.23
2022-07-29T11:40:21.551Z,58.93
2022-07-29T11:42:53.427Z,59.85
2022-07-29T11:45:43.738Z,59.30
2022-07-29T11:48:28.352Z,61.40
2022-07-29T11:50:59.202Z,59.91
2022-07-29T11:53:29.179Z,60.27
2022-07-29T11:56:03.419Z,60.53
2022-07-29T11:58:32.498Z,59.32
2022-07-29T12:01:04.572Z,57.58
2022-07-29T12:03:36.104Z,58.89
2022-07-29T12:06:07.538Z,59.32
2022-07-29T12:08:43.451Z,60.24
2022-07-29T12:11:21.467Z,59.02
2022-07-29T12:13:50.944Z,58.34
2022-07-29T12:16:26.006Z,59.42
2022-07-29T12:19:02.246Z,58.69
2022-07-29T12:21:31.237Z,59.36
2022-07-29T12:24:08.862Z,58.88
2022-07-29T12:26:51.635Z,59.40
2022-07-29T12:29:35.075Z,57.62
2022-07-29T12:32:05.327Z,58.29
2022-07-29T12:34:34.144Z,57.53
2022-07-29T12:37:02.952Z,57.56
2022-07-29T12:39:32.423Z,58.27
2022-07-29T12:42:04.526Z,60.00
2022-07-29T12:44:46.177Z,59.44
2022-07-29T12:47:14.110Z,61.57
2022-07-29T12:49:42.159Z,61.41
2022-07-29T12:52:30.793Z,61.10
2022-07-29T12:54:59.103Z,62.00
2022-07-29T12:57:28.895Z,61.67
2022-07-29T13:00:09.969Z,61.19
2022-07-29T13:02:38.663Z,61.52
2022-07-29T13:05:09.284Z,60.90
2022-07-29T13:07:55.548Z,59.86
2022-07-29T13:10:25.856Z,58.08
2022-07-29T13:13:11.117Z,58.37
2022-07-29T13:15:40.054Z,54.75
2022-07-29T13:18:29.118Z,54.67
2022-07-29T13:20:57.647Z,55.20
2022-07-29T13:23:25.743Z,55.38
2022-07-29T13:25:53.576Z,56.94
2022-07-29T13:28:24.476Z,56.67
2022-07-29T13:30:52.495Z,56.97
2022-07-29T13:33:20.404Z,56.35
2022-07-29T13:35:48.568Z,55.36
2022-07-29T13:38:16.548Z,56.26
2022-07-29T13:40:44.669Z,55.35
2022-07-29T13:43:12.634Z,56.48
2022-07-29T13:45:42.227Z,57.08
2022-07-29T13:48:10.248Z,56.46
2022-07-29T13:50:38.215Z,56.85
2022-07-29T13:53:06.120Z,57.15
2022-07-29T13:55:34.094Z,56.88
2022-07-29T13:58:02.137Z,55.69
2022-07-29T14:00:32.205Z,56.02
2022-07-29T14:03:01.454Z,56.26
2022-07-29T14:05:29.434Z,54.68
2022-07-29T14:07:57.281Z,57.09
2022-07-29T14:10:25.179Z,55.22
2022-07-29T14:12:53.132Z,53.49
2022-07-29T14:15:21.296Z,52.72
2022-07-29T14:17:49.161Z,53.53
2022-07-29T14:20:18.879Z,51.54
2022-07-29T14:22:46.741Z,51.30
2022-07-29T14:25:15.692Z,51.52
2022-07-29T14:27:44.208Z,50.63
2022-07-29T14:30:13.280Z,50.67
2022-07-29T14:32:41.209Z,52.04
2022-07-29T14:35:09.950Z,52.47
2022-07-29T14:37:40.573Z,52.61
2022-07-29T14:40:10.181Z,52.47
2022-07-29T14:42:38.544Z,52.28
2022-07-29T14:45:08.001Z,52.98
2022-07-29T14:47:37.994Z,53.58
2022-07-29T14:50:07.789Z,54.50
2022-07-29T14:52:36.013Z,55.07
2022-07-29T14:55:16.513Z,54.70
2022-07-29T14:57:48.901Z,55.20
2022-07-29T15:00:17.763Z,54.61
2022-07-29T15:03:01.398Z,55.58
2022-07-29T15:05:30.331Z,55.74
2022-07-29T15:07:58.221Z,56.15
2022-07-29T15:10:28.111Z,56.37
2022-07-29T15:12:56.051Z,54.45
2022-07-29T15:15:24.079Z,54.85
2022-07-29T15:17:52.082Z,55.49
2022-07-29T15:20:20.585Z,56.05
2022-07-29T15:22:48.605Z,56.36
2022-07-29T15:25:16.504Z,55.45
2022-07-29T15:27:49.733Z,55.19
2022-07-29T15:30:30.941Z,55.95
2022-07-29T15:33:03.003Z,56.13
2022-07-29T15:35:31.343Z,54.91
2022-07-29T15:37:59.311Z,55.01
2022-07-29T15:40:27.430Z,54.94
2022-07-29T15:42:56.906Z,53.88
2022-07-29T15:45:25.168Z,54.81
2022-07-29T15:47:53.124Z,54.74
2022-07-29T15:50:21.062Z,55.06
2022-07-29T15:52:48.983Z,56.00
2022-07-29T15:55:16.964Z,54.61
2022-07-29T15:57:44.899Z,54.33
2022-07-29T16:00:17.157Z,54.72
2022-07-29T16:02:45.537Z,54.81
2022-07-29T16:05:13.445Z,53.97
2022-07-29T16:07:41.326Z,53.85
2022-07-29T16:10:09.756Z,54.62
2022-07-29T16:12:37.654Z,54.92
2022-07-29T16:15:09.895Z,55.27
2022-07-29T16:17:40.217Z,53.76
2022-07-29T16:20:09.358Z,53.66
2022-07-29T16:22:38.739Z,53.53
2022-07-29T16:25:07.665Z,55.16
2022-07-29T16:27:37.783Z,56.06
2022-07-29T16:30:07.953Z,55.52
2022-07-29T16:32:35.845Z,55.38
2022-07-29T16:35:05.820Z,56.19
2022-07-29T16:37:36.538Z,56.37
2022-07-29T16:40:06.164Z,55.96
2022-07-29T16:42:46.467Z,56.35
2022-07-29T16:45:15.198Z,57.51
2022-07-29T16:47:43.279Z,56.96
2022-07-29T16:50:12.931Z,57.09
2022-07-29T16:52:41.031Z,57.38
2022-07-29T16:55:09.380Z,58.83
2022-07-29T16:57:37.251Z,59.54
2022-07-29T17:00:06.438Z,59.74
2022-07-29T17:02:34.510Z,59.87
2022-07-29T17:05:02.791Z,58.75
2022-07-29T17:07:32.160Z,58.86
2022-07-29T17:10:03.857Z,58.72
2022-07-29T17:12:32.379Z,59.07
2022-07-29T17:15:00.304Z,59.58
2022-07-29T17:17:39.546Z,59.46
2022-07-29T17:20:17.679Z,60.44
2022-07-29T17:22:47.005Z,62.47
2022-07-29T17:25:21.123Z,62.90
2022-07-29T17:27:50.457Z,61.79
2022-07-29T17:30:18.919Z,62.13
2022-07-29T17:32:46.816Z,61.74
2022-07-29T17:35:28.683Z,61.59
2022-07-29T17:37:58.114Z,61.08
2022-07-29T17:40:26.131Z,61.01
2022-07-29T17:42:54.032Z,64.75
2022-07-29T17:45:21.930Z,64.88
2022-07-29T17:47:49.860Z,64.55
2022-07-29T17:50:17.717Z,65.05
2022-07-29T17:52:45.578Z,64.27
2022-07-29T17:55:14.894Z,63.98
2022-07-29T17:57:42.886Z,64.39
2022-07-29T18:00:11.293Z,64.39
2022-07-29T18:02:39.464Z,65.06
2022-07-29T18:05:07.717Z,66.37
2022-07-29T18:07:35.632Z,66.22
2022-07-29T18:10:03.592Z,67.19
2022-07-29T18:12:32.876Z,67.58
2022-07-29T18:15:00.750Z,68.91
2022-07-29T18:17:35.072Z,69.59
2022-07-29T18:20:16.755Z,69.39
2022-07-29T18:22:44.703Z,69.90
2022-07-29T18:25:12.961Z,70.25
2022-07-29T18:27:42.176Z,70.92
2022-07-29T18:30:10.701Z,71.94
2022-07-29T18:32:38.638Z,73.45
2022-07-29T18:35:07.146Z,74.47
2022-07-29T18:38:01.079Z,74.91
2022-07-29T18:40:25.772Z,75.97
2022-07-29T18:42:55.125Z,76.83
2022-07-29T18:45:23.048Z,77.50
2022-07-29T18:47:57.408Z,78.91
2022-07-29T18:50:29.230Z,79.55
2022-07-29T18:52:58.770Z,80.89
2022-07-29T18:55:27.366Z,81.18
2022-07-29T18:57:57.517Z,81.80
2022-07-29T19:00:26.646Z,82.53
2022-07-29T19:02:54.843Z,83.12
2022-07-29T19:05:23.412Z,83.66
2022-07-29T19:07:51.463Z,84.17
2022-07-29T19:10:19.355Z,84.82
2022-07-29T19:12:47.268Z,85.81
2022-07-29T19:15:20.320Z,86.42
2022-07-29T19:17:48.846Z,87.28
2022-07-29T19:20:17.199Z,88.18
2022-07-29T19:22:45.257Z,88.95
2022-07-29T19:25:13.572Z,89.50
2022-07-29T19:27:43.157Z,90.28
2022-07-29T19:30:11.700Z,90.73
2022-07-29T19:32:40.962Z,91.48
2022-07-29T19:35:31.120Z,91.75
2022-07-29T19:38:01.290Z,92.33
2022-07-29T19:40:30.424Z,92.35
2022-07-29T19:42:59.166Z,91.63
2022-07-29T19:45:27.324Z,91.21
2022-07-29T19:48:01.318Z,90.46
2022-07-29T19:50:30.123Z,89.66
2022-07-29T19:52:58.472Z,89.58
2022-07-29T19:55:26.409Z,89.55
2022-07-29T19:57:54.500Z,90.13
2022-07-29T20:00:23.856Z,90.96
2022-07-29T20:02:52.117Z,91.85
2022-07-29T20:05:21.605Z,92.91
2022-07-29T20:07:56.206Z,93.83
2022-07-29T20:10:24.180Z,94.17
2022-07-29T20:12:53.860Z,94.60
2022-07-29T20:15:24.536Z,95.23
2022-07-29T20:17:56.894Z,95.62
2022-07-29T20:20:27.244Z,95.24
2022-07-29T20:22:55.385Z,95.42
2022-07-29T20:25:23.597Z,95.74
2022-07-29T20:27:52.539Z,96.33
2022-07-29T20:30:21.328Z,97.17
2022-07-29T20:32:49.593Z,97.47
2022-07-29T20:35:19.842Z,97.81
2022-07-29T20:37:55.995Z,97.78
2022-07-29T20:40:25.411Z,98.03
2022-07-29T20:42:53.497Z,98.27
2022-07-29T20:45:21.561Z,98.50
2022-07-29T20:47:50.692Z,98.87
2022-07-29T20:50:19.005Z,99.99
2022-07-29T20:52:47.133Z,100.00
2022-07-29T20:59:45.995Z,98.71
2022-07-29T21:02:21.693Z,99.18
2022-07-29T21:04:49.631Z,99.75
2022-07-29T21:07:17.631Z,100.00
2022-07-29T21:09:46.421Z,100.00
2022-07-29T21:12:14.527Z,100.00
2022-07-29T21:14:49.812Z,100.00
2022-07-29T21:17:19.551Z,100.00
2022-07-29T21:19:53.057Z,100.00
2022-07-29T21:22:22.179Z,100.00
2022-07-29T21:24:50.342Z,100.00
2022-07-29T21:27:38.279Z,100.00
2022-07-29T21:30:09.468Z,100.00
2022-07-29T21:32:37.907Z,100.00
2022-07-29T21:35:11.773Z,100.00
2022-07-29T21:37:50.186Z,100.00
2022-07-29T21:40:18.165Z,100.00
2022-07-29T21:42:46.176Z,99.00
2022-07-29T21:45:15.432Z,92.95
2022-07-29T21:47:43.393Z,89.74
2022-07-29T21:50:11.441Z,87.53
2022-07-29T21:52:39.302Z,88.96
2022-07-29T21:55:10.541Z,90.90
2022-07-29T21:57:39.533Z,92.73
2022-07-29T22:00:11.618Z,94.41
2022-07-29T22:02:40.929Z,96.56
2022-07-29T22:05:09.602Z,98.68
2022-07-29T22:07:54.585Z,100.00
2022-07-29T22:10:25.730Z,100.00
2022-07-29T22:12:54.954Z,100.00
2022-07-29T22:15:23.512Z,100.00
2022-07-29T22:17:53.108Z,100.00
2022-07-29T22:20:21.710Z,100.00
2022-07-29T22:22:49.600Z,100.00
2022-07-29T22:25:17.803Z,100.00
2022-07-29T22:27:45.891Z,100.00
2022-07-29T22:30:14.457Z,100.00
2022-07-29T22:32:42.487Z,100.00
2022-07-29T22:35:11.820Z,100.00
2022-07-29T22:37:40.059Z,100.00
2022-07-29T22:40:09.195Z,100.00
2022-07-29T22:42:40.812Z,100.00
2022-07-29T22:45:11.087Z,100.00
2022-07-29T22:47:48.189Z,100.00
2022-07-29T22:50:18.326Z,100.00
2022-07-29T22:52:46.920Z,100.00
2022-07-29T22:55:15.170Z,100.00
2022-07-29T22:57:43.148Z,100.00
2022-07-29T23:00:12.797Z,100.00
2022-07-29T23:02:41.519Z,100.00
2022-07-29T23:05:10.647Z,100.00
2022-07-29T23:07:39.946Z,100.00
2022-07-29T23:10:08.984Z,100.00
2022-07-29T23:12:37.113Z,100.00
2022-07-29T23:15:05.643Z,100.00
2022-07-29T23:17:36.227Z,100.00
2022-07-29T23:20:07.534Z,100.00
2022-07-29T23:22:35.629Z,100.00
2022-07-29T23:25:06.358Z,100.00
2022-07-29T23:27:34.587Z,100.00
2022-07-29T23:30:02.772Z,100.00
2022-07-29T23:32:30.702Z,100.00
2022-07-29T23:34:58.593Z,100.00
2022-07-29T23:37:26.991Z,100.00
2022-07-29T23:39:55.279Z,100.00
2022-07-29T23:42:24.596Z,100.00
2022-07-29T23:44:52.824Z,100.00
2022-07-29T23:47:20.741Z,100.00
2022-07-29T23:49:49.975Z,100.00
2022-07-29T23:52:18.814Z,100.00
2022-07-29T23:54:46.744Z,100.00
2022-07-29T23:57:14.777Z,100.00
2022-07-29T23:59:44.049Z,100.00
